Time;durP1;ratioP1;P1;durP2;ratioP2;P2;SDS_P1;SDS_P2;PMS_P1;PMS_P2;Temp;Humidity;BMP_temperature;BMP_pressure;BME280_temperature;BME280_humidity;BME280_pressure;Samples;Min_cycle;Max_cycle;Signal;HPM_P1;HPM_P2
2021/07/06 00:00:55;;;;;;;0.57;0.57;;;13.70;99.90;;;;;;2088272;28;20204;-70
2021/07/06 00:01:56;;;;;;;0.80;0.80;;;13.70;99.90;;;;;;2088625;28;20233;-71
2021/07/06 00:02:57;;;;;;;0.53;0.53;;;13.70;99.90;;;;;;2089322;28;20208;-71
2021/07/06 00:03:58;;;;;;;0.70;0.70;;;13.70;99.90;;;;;;2105225;28;20597;-71
2021/07/06 00:04:59;;;;;;;0.70;0.70;;;13.70;99.90;;;;;;2105453;28;20171;-70
2021/07/06 00:06:00;;;;;;;1.05;0.85;;;13.70;99.90;;;;;;2089185;28;20226;-71
2021/07/06 00:07:01;;;;;;;0.77;0.77;;;13.60;99.90;;;;;;2088617;28;20687;-70
2021/07/06 00:08:02;;;;;;;1.80;0.83;;;13.70;99.90;;;;;;2088651;28;20208;-70
2021/07/06 00:09:03;;;;;;;0.50;0.50;;;13.70;99.90;;;;;;2088654;28;20555;-71
2021/07/06 00:10:07;;;;;;;0.55;0.55;;;13.70;99.90;;;;;;2088978;28;20230;-71
2021/07/06 00:11:08;;;;;;;0.40;0.40;;;13.60;99.90;;;;;;2088614;28;20184;-71
2021/07/06 00:12:09;;;;;;;0.80;0.80;;;13.60;99.90;;;;;;2088613;28;20615;-71
2021/07/06 00:13:10;;;;;;;0.47;0.47;;;13.60;99.90;;;;;;2088677;28;20552;-71
2021/07/06 00:14:10;;;;;;;0.90;0.90;;;13.60;99.90;;;;;;2088793;28;20184;-70
2021/07/06 00:15:14;;;;;;;0.40;0.40;;;13.60;99.90;;;;;;2088539;28;20172;-71
2021/07/06 00:16:15;;;;;;;0.40;0.40;;;13.60;99.90;;;;;;2088665;28;20741;-70
2021/07/06 00:17:16;;;;;;;0.30;0.30;;;13.50;99.90;;;;;;2089360;28;20176;-71
2021/07/06 00:18:17;;;;;;;0.43;0.43;;;13.50;99.90;;;;;;2089372;28;20180;-71
2021/07/06 00:19:18;;;;;;;0.50;0.40;;;13.50;99.90;;;;;;2088472;28;20180;-70
2021/07/06 00:20:20;;;;;;;0.93;0.50;;;13.50;99.90;;;;;;2088453;28;20184;-71
2021/07/06 00:21:20;;;;;;;0.60;0.60;;;13.50;99.90;;;;;;2089295;28;20190;-70
2021/07/06 00:22:21;;;;;;;0.40;0.40;;;13.50;99.90;;;;;;2089001;28;20546;-71
2021/07/06 00:23:22;;;;;;;0.60;0.60;;;13.50;99.90;;;;;;2089063;28;20212;-71
2021/07/06 00:24:23;;;;;;;0.67;0.67;;;13.60;99.90;;;;;;2105351;28;20174;-71
2021/07/06 00:25:25;;;;;;;1.37;0.70;;;13.60;99.90;;;;;;2105110;28;20182;-70
2021/07/06 00:26:26;;;;;;;0.70;0.70;;;13.60;99.90;;;;;;2105197;28;20195;-70
2021/07/06 00:27:26;;;;;;;0.70;0.70;;;13.60;99.90;;;;;;2105280;28;20178;-71
2021/07/06 00:28:27;;;;;;;0.47;0.47;;;13.70;99.90;;;;;;2089181;28;20481;-71
2021/07/06 00:29:28;;;;;;;0.70;0.70;;;13.70;99.90;;;;;;2089086;28;20207;-73
2021/07/06 00:30:29;;;;;;;0.73;0.73;;;13.60;99.90;;;;;;2089111;28;20204;-71
2021/07/06 00:31:30;;;;;;;0.40;0.40;;;13.60;99.90;;;;;;2105070;28;20273;-70
2021/07/06 00:32:30;;;;;;;0.57;0.57;;;13.70;99.90;;;;;;2097018;28;20175;-71
2021/07/06 00:33:31;;;;;;;2.53;1.03;;;13.70;99.90;;;;;;2088541;28;20177;-71
2021/07/06 00:34:32;;;;;;;0.40;0.40;;;13.70;99.90;;;;;;2088592;28;20180;-70
2021/07/06 00:35:33;;;;;;;0.30;0.30;;;13.80;99.90;;;;;;2088672;28;20267;-70
2021/07/06 00:36:33;;;;;;;0.93;0.50;;;13.70;99.90;;;;;;2089370;28;20270;-71
2021/07/06 00:37:35;;;;;;;0.80;0.80;;;13.70;99.90;;;;;;2088527;28;20631;-70
2021/07/06 00:38:36;;;;;;;1.48;1.15;;;13.70;99.90;;;;;;2088627;28;20176;-71
2021/07/06 00:39:37;;;;;;;0.50;0.50;;;13.70;99.90;;;;;;2089074;28;20224;-71
2021/07/06 00:40:38;;;;;;;0.83;0.83;;;13.70;99.90;;;;;;2089003;28;20231;-71
2021/07/06 00:41:40;;;;;;;0.50;0.50;;;13.80;99.90;;;;;;2105225;28;20678;-71
2021/07/06 00:42:47;;;;;;;0.65;0.65;;;13.80;99.90;;;;;;2106757;28;20208;-72
2021/07/06 00:43:47;;;;;;;0.45;0.45;;;13.80;99.90;;;;;;2089988;28;20196;-71
2021/07/06 00:44:48;;;;;;;0.50;0.50;;;13.80;99.90;;;;;;2090244;28;20175;-71
2021/07/06 00:45:50;;;;;;;0.60;0.60;;;13.80;99.90;;;;;;2090777;28;20194;-71
2021/07/06 00:46:51;;;;;;;0.55;0.55;;;13.80;99.90;;;;;;2090814;28;20184;-70
2021/07/06 00:47:52;;;;;;;0.43;0.43;;;13.90;99.90;;;;;;2106700;28;20273;-71
2021/07/06 00:48:53;;;;;;;0.47;0.47;;;13.90;99.90;;;;;;2106852;28;20261;-71
2021/07/06 00:49:54;;;;;;;0.93;0.93;;;13.90;99.90;;;;;;2106498;28;20179;-71
2021/07/06 00:50:56;;;;;;;0.70;0.70;;;13.90;99.90;;;;;;2106363;28;20194;-71
2021/07/06 00:51:56;;;;;;;0.40;0.40;;;13.90;99.90;;;;;;2090667;28;20168;-71
2021/07/06 00:52:57;;;;;;;0.63;0.63;;;13.90;99.90;;;;;;2090793;28;20184;-71
2021/07/06 00:53:59;;;;;;;0.80;0.80;;;13.90;99.90;;;;;;2090635;28;20183;-70
2021/07/06 00:54:59;;;;;;;0.45;0.45;;;13.90;99.90;;;;;;2090677;28;20184;-71
2021/07/06 00:56:00;;;;;;;0.70;0.70;;;13.90;99.90;;;;;;2090657;28;20306;-70
2021/07/06 00:57:03;;;;;;;0.40;0.40;;;13.90;99.90;;;;;;2106866;28;20208;-71
2021/07/06 00:58:04;;;;;;;0.40;0.40;;;13.90;99.90;;;;;;2106177;28;20543;-71
2021/07/06 00:59:05;;;;;;;0.50;0.50;;;13.90;99.90;;;;;;2090703;28;20188;-71
2021/07/06 01:00:13;;;;;;;0.53;0.53;;;13.90;99.90;;;;;;2090364;28;20422;-70
2021/07/06 01:01:15;;;;;;;1.08;0.95;;;13.90;99.90;;;;;;2089972;28;20177;-71
2021/07/06 01:02:16;;;;;;;0.77;0.77;;;13.90;99.90;;;;;;2089934;28;20184;-71
2021/07/06 01:03:16;;;;;;;0.57;0.57;;;13.90;99.90;;;;;;2090532;28;20176;-70
2021/07/06 01:04:18;;;;;;;0.60;0.60;;;14.00;99.90;;;;;;2106566;28;20179;-71
2021/07/06 01:05:22;;;;;;;0.38;0.38;;;14.00;99.90;;;;;;2098275;28;20183;-71
2021/07/06 01:06:23;;;;;;;0.60;0.60;;;13.90;99.90;;;;;;2089714;28;20635;-71
2021/07/06 01:07:24;;;;;;;0.40;0.40;;;13.90;99.90;;;;;;2090604;28;20200;-71
2021/07/06 01:08:24;;;;;;;0.40;0.40;;;13.90;99.90;;;;;;2106561;28;20584;-71
2021/07/06 01:09:25;;;;;;;2.27;0.83;;;13.90;99.90;;;;;;2098183;28;20302;-71
2021/07/06 01:10:27;;;;;;;0.70;0.70;;;13.90;99.90;;;;;;2089630;28;20179;-71
2021/07/06 01:11:27;;;;;;;0.30;0.30;;;13.90;99.90;;;;;;2097885;28;20654;-71
2021/07/06 01:12:31;;;;;;;1.03;1.00;;;13.90;99.90;;;;;;2098279;28;20245;-71
2021/07/06 01:13:33;;;;;;;0.75;0.63;;;13.90;99.90;;;;;;2106545;28;20202;-71
2021/07/06 01:14:34;;;;;;;0.60;0.60;;;13.90;99.90;;;;;;2105361;28;20168;-71
2021/07/06 01:15:35;;;;;;;0.30;0.30;;;13.90;99.90;;;;;;2090454;28;20195;-71
2021/07/06 01:16:36;;;;;;;1.15;0.73;;;13.90;99.90;;;;;;2090398;28;20181;-71
2021/07/06 01:17:39;;;;;;;0.83;0.83;;;13.90;99.90;;;;;;2090522;28;20176;-72
2021/07/06 01:18:40;;;;;;;0.30;0.30;;;13.90;99.90;;;;;;2090537;28;20255;-71
2021/07/06 01:19:42;;;;;;;0.40;0.40;;;13.80;99.90;;;;;;2089695;28;20188;-70
2021/07/06 01:20:50;;;;;;;0.38;0.38;;;13.80;99.90;;;;;;2098036;28;20673;-70
2021/07/06 01:21:50;;;;;;;0.40;0.40;;;13.80;99.90;;;;;;2104276;28;20517;-71
2021/07/06 01:22:51;;;;;;;0.30;0.30;;;13.80;99.90;;;;;;2106538;28;20181;-70
2021/07/06 01:23:52;;;;;;;0.43;0.43;;;13.80;99.90;;;;;;2106329;28;20229;-71
2021/07/06 01:24:53;;;;;;;0.50;0.50;;;13.80;99.90;;;;;;2090377;28;20181;-70
2021/07/06 01:25:58;;;;;;;0.60;0.45;;;13.80;99.90;;;;;;2090441;28;20256;-71
2021/07/06 01:26:59;;;;;;;0.75;0.73;;;13.70;99.90;;;;;;2106566;28;20802;-71
2021/07/06 01:28:02;;;;;;;0.60;0.60;;;13.80;99.90;;;;;;2097883;28;20210;-71
2021/07/06 01:29:02;;;;;;;0.52;0.52;;;13.70;99.90;;;;;;2089886;28;20211;-71
2021/07/06 01:30:08;;;;;;;0.63;0.63;;;13.80;99.90;;;;;;2090296;28;20195;-71
2021/07/06 01:31:09;;;;;;;0.65;0.65;;;13.70;99.90;;;;;;2089758;28;20222;-71
2021/07/06 01:32:10;;;;;;;0.83;0.67;;;13.70;99.90;;;;;;2089753;28;20623;-71
2021/07/06 01:33:26;;;;;;;0.68;0.65;;;13.70;99.90;;;;;;2106421;28;20246;-70
2021/07/06 01:34:27;;;;;;;0.47;0.47;;;13.70;99.90;;;;;;2096160;28;20174;-71
2021/07/06 01:35:28;;;;;;;0.60;0.60;;;13.70;99.90;;;;;;2089730;28;20593;-70
2021/07/06 01:36:29;;;;;;;0.50;0.50;;;13.60;99.90;;;;;;2089618;28;20237;-71
2021/07/06 01:37:29;;;;;;;0.63;0.63;;;13.70;99.90;;;;;;2089731;28;20287;-70
2021/07/06 01:38:36;;;;;;;0.63;0.63;;;13.60;99.90;;;;;;2090203;28;20189;-71
2021/07/06 01:39:36;;;;;;;0.60;0.52;;;13.60;99.90;;;;;;2090240;28;20174;-70
2021/07/06 01:40:37;;;;;;;0.57;0.57;;;13.60;99.90;;;;;;2089986;28;20200;-71
2021/07/06 01:41:40;;;;;;;1.00;0.60;;;13.60;99.90;;;;;;2106283;28;20171;-71
2021/07/06 01:42:42;;;;;;;3.20;0.80;;;13.60;99.90;;;;;;2097553;28;20254;-71
2021/07/06 01:43:46;;;;;;;0.40;0.40;;;13.60;99.90;;;;;;2089590;28;20201;-70
2021/07/06 01:44:47;;;;;;;0.35;0.35;;;13.60;99.90;;;;;;2090301;28;20256;-71
2021/07/06 01:45:48;;;;;;;0.40;0.40;;;13.60;99.90;;;;;;2090311;28;20687;-71
2021/07/06 01:46:49;;;;;;;0.33;0.33;;;13.60;99.90;;;;;;2090276;28;20196;-71
2021/07/06 01:47:53;;;;;;;0.50;0.50;;;13.50;99.90;;;;;;2106425;28;20204;-71
2021/07/06 01:48:54;;;;;;;0.60;0.60;;;13.50;99.90;;;;;;2105485;28;20171;-71
2021/07/06 01:49:54;;;;;;;0.40;0.40;;;13.50;99.90;;;;;;2090418;28;20169;-70
2021/07/06 01:50:55;;;;;;;0.43;0.43;;;13.50;99.90;;;;;;2089950;28;20598;-71
2021/07/06 01:51:56;;;;;;;0.57;0.57;;;13.50;99.90;;;;;;2090381;28;20165;-71
2021/07/06 01:53:03;;;;;;;0.83;0.70;;;13.50;99.90;;;;;;2090103;28;20177;-70
2021/07/06 01:54:04;;;;;;;0.43;0.43;;;13.50;99.90;;;;;;2105421;28;20163;-70
2021/07/06 01:55:05;;;;;;;0.40;0.40;;;13.40;99.90;;;;;;2106078;28;20224;-71
2021/07/06 01:56:06;;;;;;;0.55;0.55;;;13.50;99.90;;;;;;2106167;28;20270;-70
2021/07/06 01:57:07;;;;;;;1.03;0.60;;;13.40;99.90;;;;;;2106142;28;20182;-70
2021/07/06 01:58:14;;;;;;;0.70;0.70;;;13.40;99.90;;;;;;2090307;28;20180;-71
2021/07/06 01:59:15;;;;;;;0.60;0.60;;;13.40;99.90;;;;;;2089450;28;20188;-71
2021/07/06 02:00:20;;;;;;;0.47;0.47;;;13.40;99.90;;;;;;2089320;28;20629;-70
2021/07/06 02:01:21;;;;;;;0.88;0.75;;;13.40;99.90;;;;;;2090129;28;20183;-71
2021/07/06 02:02:22;;;;;;;0.80;0.80;;;13.30;99.90;;;;;;2090376;28;20212;-70
2021/07/06 02:03:23;;;;;;;0.53;0.53;;;13.30;99.90;;;;;;2089942;28;20177;-70
2021/07/06 02:04:29;;;;;;;0.40;0.40;;;13.30;99.90;;;;;;2089602;28;20233;-70
2021/07/06 02:05:37;;;;;;;0.30;0.30;;;13.40;99.90;;;;;;2098268;28;20672;-72
2021/07/06 02:06:37;;;;;;;0.60;0.60;;;13.30;99.90;;;;;;2096916;28;20650;-71
2021/07/06 02:07:38;;;;;;;0.43;0.43;;;13.30;99.90;;;;;;2089472;28;20177;-71
2021/07/06 02:08:39;;;;;;;0.50;0.50;;;13.30;99.90;;;;;;2097892;28;20651;-70
2021/07/06 02:09:39;;;;;;;0.67;0.67;;;13.30;99.90;;;;;;2097767;28;20187;-71
2021/07/06 02:10:44;;;;;;;0.80;0.80;;;13.30;99.90;;;;;;2089811;28;20193;-71
2021/07/06 02:11:44;;;;;;;0.85;0.85;;;13.30;99.90;;;;;;2089944;28;20678;-70
2021/07/06 02:12:46;;;;;;;0.50;0.50;;;13.30;99.90;;;;;;2090142;28;20222;-71
2021/07/06 02:13:47;;;;;;;0.52;0.52;;;13.30;99.90;;;;;;2089422;28;20181;-71
2021/07/06 02:14:48;;;;;;;0.55;0.55;;;13.20;99.90;;;;;;2089553;28;20225;-70
2021/07/06 02:15:51;;;;;;;0.40;0.40;;;13.20;99.90;;;;;;2089885;28;20184;-71
2021/07/06 02:16:52;;;;;;;0.57;0.57;;;13.20;99.90;;;;;;2090081;28;20188;-71
2021/07/06 02:17:53;;;;;;;0.30;0.30;;;13.20;99.90;;;;;;2089858;28;20178;-70
2021/07/06 02:18:54;;;;;;;10.93;0.70;;;13.20;99.90;;;;;;2090018;28;20176;-71
2021/07/06 02:19:55;;;;;;;0.73;0.32;;;13.20;99.90;;;;;;2089803;28;20226;-71
2021/07/06 02:20:58;;;;;;;0.40;0.40;;;13.20;99.90;;;;;;2089762;28;20264;-70
2021/07/06 02:21:59;;;;;;;0.30;0.30;;;13.20;99.90;;;;;;2089973;28;20177;-70
2021/07/06 02:23:00;;;;;;;0.77;0.73;;;13.20;99.90;;;;;;2089498;28;20192;-71
2021/07/06 02:24:01;;;;;;;0.70;0.70;;;13.20;99.90;;;;;;2089290;28;20208;-71
2021/07/06 02:25:03;;;;;;;1.17;0.83;;;13.20;99.90;;;;;;2090002;28;20203;-71
2021/07/06 02:26:09;;;;;;;0.28;0.28;;;13.20;99.90;;;;;;2105733;28;20175;-71
2021/07/06 02:27:10;;;;;;;0.20;0.20;;;13.10;99.90;;;;;;2104730;28;20653;-71
2021/07/06 02:28:11;;;;;;;0.60;0.60;;;13.10;99.90;;;;;;2089861;28;20208;-71
2021/07/06 02:29:11;;;;;;;0.50;0.50;;;13.10;99.90;;;;;;2106095;28;20186;-70
2021/07/06 02:30:18;;;;;;;1.77;0.40;;;13.10;99.90;;;;;;2102999;28;20281;-71
2021/07/06 02:31:19;;;;;;;0.40;0.40;;;13.20;99.90;;;;;;2089553;28;20546;-71
2021/07/06 02:32:19;;;;;;;0.67;0.67;;;13.20;99.90;;;;;;2089336;28;20210;-70
2021/07/06 02:33:21;;;;;;;0.50;0.50;;;13.20;99.90;;;;;;2090076;28;20584;-71
2021/07/06 02:34:21;;;;;;;0.50;0.50;;;13.20;99.90;;;;;;2089978;28;20556;-71
2021/07/06 02:35:26;;;;;;;0.60;0.60;;;13.20;99.90;;;;;;2090072;28;20177;-71
2021/07/06 02:36:27;;;;;;;0.57;0.57;;;13.20;99.90;;;;;;2089985;28;20264;-70
2021/07/06 02:37:28;;;;;;;0.50;0.50;;;13.20;99.90;;;;;;2089894;28;20540;-70
2021/07/06 02:38:29;;;;;;;0.50;0.50;;;13.20;99.90;;;;;;2090058;28;20183;-71
2021/07/06 02:39:29;;;;;;;0.73;0.73;;;13.10;99.90;;;;;;2090033;28;20172;-70
2021/07/06 02:40:30;;;;;;;0.67;0.47;;;13.10;99.90;;;;;;2089636;28;20272;-71
2021/07/06 02:41:31;;;;;;;0.70;0.70;;;13.00;99.90;;;;;;2090056;28;20208;-71
2021/07/06 02:42:32;;;;;;;0.53;0.53;;;13.00;99.90;;;;;;2089807;28;20243;-70
2021/07/06 02:43:33;;;;;;;0.40;0.40;;;13.00;99.90;;;;;;2089951;28;20169;-71
2021/07/06 02:44:34;;;;;;;0.40;0.40;;;13.00;99.90;;;;;;2089747;28;20204;-71
2021/07/06 02:45:34;;;;;;;0.30;0.30;;;12.90;99.90;;;;;;2089879;28;20185;-71
2021/07/06 02:46:35;;;;;;;0.40;0.30;;;13.00;99.90;;;;;;2089807;28;20226;-71
2021/07/06 02:47:36;;;;;;;0.77;0.77;;;13.00;99.90;;;;;;2089662;28;20199;-70
2021/07/06 02:48:38;;;;;;;0.75;0.75;;;13.00;99.90;;;;;;2088939;28;20165;-71
2021/07/06 02:49:39;;;;;;;1.40;0.80;;;13.00;99.90;;;;;;2089234;28;20234;-71
2021/07/06 02:50:40;;;;;;;0.40;0.40;;;12.90;99.90;;;;;;2089340;28;20676;-71
2021/07/06 02:51:41;;;;;;;1.10;0.63;;;12.90;99.90;;;;;;2090083;28;20208;-71
2021/07/06 02:52:43;;;;;;;0.73;0.73;;;12.90;99.90;;;;;;2089822;28;20176;-71
2021/07/06 02:53:44;;;;;;;0.32;0.32;;;12.90;99.90;;;;;;2089928;28;20188;-70
2021/07/06 02:54:44;;;;;;;0.50;0.50;;;12.90;99.90;;;;;;2089697;28;20254;-71
2021/07/06 02:55:45;;;;;;;0.57;0.57;;;12.90;99.90;;;;;;2089970;28;20250;-71
2021/07/06 02:56:46;;;;;;;0.30;0.30;;;13.00;99.90;;;;;;2089037;28;20172;-71
2021/07/06 02:57:47;;;;;;;0.30;0.30;;;13.00;99.90;;;;;;2089221;28;20180;-71
2021/07/06 02:58:48;;;;;;;1.98;0.63;;;13.00;99.90;;;;;;2079446;28;20189;-71
2021/07/06 02:59:49;;;;;;;0.47;0.47;;;13.00;99.90;;;;;;2072708;28;20186;-71
2021/07/06 03:00:49;;;;;;;0.50;0.50;;;13.00;99.90;;;;;;2086074;28;20271;-72
2021/07/06 03:01:51;;;;;;;0.50;0.50;;;13.00;99.90;;;;;;2081581;28;20183;-71
2021/07/06 03:02:58;;;;;;;0.70;0.70;;;13.10;99.90;;;;;;2081377;28;20199;-70
2021/07/06 03:03:59;;;;;;;0.63;0.63;;;13.00;99.90;;;;;;2081375;28;20731;-71
2021/07/06 03:04:59;;;;;;;0.50;0.50;;;13.00;99.90;;;;;;2081169;28;20181;-71
2021/07/06 03:06:00;;;;;;;0.50;0.50;;;13.10;99.90;;;;;;2081373;28;20177;-70
2021/07/06 03:07:01;;;;;;;1.33;0.97;;;13.10;99.90;;;;;;2081277;28;20176;-72
2021/07/06 03:08:02;;;;;;;0.40;0.40;;;13.10;99.90;;;;;;2081431;28;20260;-71
2021/07/06 03:09:03;;;;;;;0.55;0.55;;;13.10;99.90;;;;;;2081242;28;20181;-71
2021/07/06 03:10:10;;;;;;;1.00;1.00;;;13.10;99.90;;;;;;2081247;28;20173;-71
2021/07/06 03:11:11;;;;;;;0.60;0.60;;;13.20;99.90;;;;;;2081230;28;20427;-71
2021/07/06 03:12:12;;;;;;;0.30;0.30;;;13.20;99.90;;;;;;2081456;28;20678;-70
2021/07/06 03:13:12;;;;;;;0.50;0.50;;;13.20;99.90;;;;;;2081248;28;20181;-71
2021/07/06 03:14:13;;;;;;;0.40;0.40;;;13.20;99.90;;;;;;2080810;28;20181;-71
2021/07/06 03:15:17;;;;;;;0.57;0.57;;;13.20;99.90;;;;;;2072483;28;20178;-70
2021/07/06 03:16:17;;;;;;;0.50;0.50;;;13.10;99.90;;;;;;2080834;28;20648;-73
2021/07/06 03:17:18;;;;;;;0.50;0.50;;;13.10;99.90;;;;;;2081291;28;20180;-71
2021/07/06 03:18:19;;;;;;;0.50;0.50;;;13.10;99.90;;;;;;2081342;28;20621;-71
2021/07/06 03:19:19;;;;;;;0.50;0.50;;;13.00;99.90;;;;;;2080700;28;20251;-72
2021/07/06 03:20:23;;;;;;;0.43;0.43;;;13.00;99.90;;;;;;2080520;28;20188;-71
2021/07/06 03:21:24;;;;;;;0.50;0.50;;;13.00;99.90;;;;;;2080659;28;20264;-71
2021/07/06 03:22:24;;;;;;;1.03;0.77;;;12.90;99.90;;;;;;2080748;28;20304;-71
2021/07/06 03:23:27;;;;;;;0.50;0.50;;;12.90;99.90;;;;;;2081042;28;20181;-71
2021/07/06 03:24:28;;;;;;;0.30;0.30;;;12.90;99.90;;;;;;2081325;28;20256;-70
2021/07/06 03:25:30;;;;;;;0.30;0.30;;;12.90;99.90;;;;;;2081130;28;20803;-71
2021/07/06 03:26:30;;;;;;;0.30;0.30;;;12.90;99.90;;;;;;2097165;28;20259;-71
2021/07/06 03:27:31;;;;;;;0.40;0.40;;;12.90;99.90;;;;;;2096968;28;20172;-71
2021/07/06 03:28:32;;;;;;;0.47;0.47;;;12.90;99.90;;;;;;2081163;28;20200;-70
2021/07/06 03:29:33;;;;;;;0.50;0.50;;;12.90;99.90;;;;;;2081005;28;20419;-70
2021/07/06 03:30:36;;;;;;;0.73;0.73;;;12.90;99.90;;;;;;2080851;28;20196;-71
2021/07/06 03:31:37;;;;;;;0.45;0.45;;;12.90;99.90;;;;;;2097113;28;20575;-70
2021/07/06 03:32:37;;;;;;;0.30;0.30;;;12.90;99.90;;;;;;2097105;28;20174;-71
2021/07/06 03:33:38;;;;;;;1.10;0.67;;;12.90;99.90;;;;;;2081145;28;20614;-71
2021/07/06 03:34:40;;;;;;;0.40;0.40;;;12.90;99.90;;;;;;2081283;28;20181;-70
2021/07/06 03:35:41;;;;;;;0.43;0.43;;;13.00;99.90;;;;;;2081112;28;20177;-70
2021/07/06 03:36:41;;;;;;;0.33;0.33;;;12.90;99.90;;;;;;2081170;28;20305;-71
2021/07/06 03:37:42;;;;;;;0.50;0.50;;;13.00;99.90;;;;;;2081064;28;20183;-71
2021/07/06 03:38:43;;;;;;;0.40;0.40;;;12.90;99.90;;;;;;2081441;28;20670;-70
2021/07/06 03:39:44;;;;;;;0.60;0.60;;;13.00;99.90;;;;;;2081148;28;20196;-71
2021/07/06 03:40:46;;;;;;;0.60;0.60;;;13.00;99.90;;;;;;2081051;28;20197;-71
2021/07/06 03:41:47;;;;;;;0.30;0.30;;;12.90;99.90;;;;;;2081219;28;20617;-71
2021/07/06 03:42:49;;;;;;;0.60;0.60;;;12.90;99.90;;;;;;2081777;28;20184;-71
2021/07/06 03:43:50;;;;;;;0.57;0.57;;;12.90;99.90;;;;;;2081014;28;20200;-71
2021/07/06 03:44:50;;;;;;;0.40;0.40;;;12.90;99.90;;;;;;2081388;28;20232;-71
2021/07/06 03:45:51;;;;;;;0.23;0.23;;;12.90;99.90;;;;;;2082036;28;20173;-71
2021/07/06 03:46:52;;;;;;;0.43;0.43;;;12.90;99.90;;;;;;2081688;28;20533;-74
2021/07/06 03:47:53;;;;;;;0.37;0.37;;;13.00;99.90;;;;;;2082024;28;20188;-71
2021/07/06 03:48:54;;;;;;;0.55;0.55;;;13.00;99.90;;;;;;2081941;28;20173;-71
2021/07/06 03:49:55;;;;;;;0.33;0.33;;;13.10;99.90;;;;;;2082270;28;20656;-69
2021/07/06 03:50:55;;;;;;;0.77;0.77;;;13.10;99.90;;;;;;2082563;28;20193;-71
2021/07/06 03:51:56;;;;;;;0.43;0.43;;;13.10;99.90;;;;;;2082968;28;20173;-71
2021/07/06 03:52:59;;;;;;;0.30;0.30;;;13.10;99.90;;;;;;2082954;28;20223;-70
2021/07/06 03:54:00;;;;;;;0.40;0.40;;;13.20;99.90;;;;;;2082344;28;20184;-71
2021/07/06 03:55:01;;;;;;;2.20;0.77;;;13.20;99.90;;;;;;2073444;28;20177;-71
2021/07/06 03:56:02;;;;;;;0.57;0.57;;;13.20;99.90;;;;;;2080541;28;20181;-71
2021/07/06 03:57:03;;;;;;;0.50;0.50;;;13.30;99.90;;;;;;2088512;28;20501;-71
2021/07/06 03:58:03;;;;;;;0.77;0.77;;;13.30;99.90;;;;;;2080981;28;20181;-70
2021/07/06 03:59:04;;;;;;;0.70;0.70;;;13.30;99.90;;;;;;2080924;28;20454;-71
2021/07/06 04:00:12;;;;;;;0.50;0.50;;;13.30;99.90;;;;;;2080932;28;20626;-71
2021/07/06 04:01:13;;;;;;;0.60;0.60;;;13.40;99.90;;;;;;2080892;28;20647;-71
2021/07/06 04:02:14;;;;;;;0.70;0.70;;;13.40;99.90;;;;;;2080962;28;20181;-71
2021/07/06 04:03:14;;;;;;;0.73;0.63;;;13.40;99.90;;;;;;2080818;28;20679;-71
2021/07/06 04:04:15;;;;;;;1.33;0.60;;;13.40;99.90;;;;;;2081002;28;20267;-71
2021/07/06 04:05:17;;;;;;;0.40;0.40;;;13.50;99.90;;;;;;2080293;28;20227;-71
2021/07/06 04:06:17;;;;;;;0.82;0.82;;;13.60;99.90;;;;;;2080438;28;20540;-71
2021/07/06 04:07:18;;;;;;;0.33;0.33;;;13.60;99.90;;;;;;2080966;28;20200;-71
2021/07/06 04:08:19;;;;;;;0.60;0.60;;;13.70;99.90;;;;;;2080464;28;20181;-71
2021/07/06 04:09:20;;;;;;;0.80;0.80;;;13.70;99.90;;;;;;2072198;28;20550;-71
2021/07/06 04:10:21;;;;;;;1.30;0.57;;;13.70;99.90;;;;;;2080174;28;20173;-70
2021/07/06 04:11:22;;;;;;;0.35;0.35;;;13.80;99.90;;;;;;2088427;28;20172;-71
2021/07/06 04:12:23;;;;;;;0.55;0.55;;;13.80;99.90;;;;;;2080387;28;20191;-71
2021/07/06 04:13:23;;;;;;;0.60;0.60;;;13.80;99.90;;;;;;2080095;28;20200;-71
2021/07/06 04:14:24;;;;;;;0.57;0.57;;;13.80;99.90;;;;;;2081220;28;20631;-71
2021/07/06 04:15:25;;;;;;;0.43;0.43;;;13.80;99.90;;;;;;2080803;28;20539;-71
2021/07/06 04:16:26;;;;;;;0.50;0.50;;;13.90;99.90;;;;;;2079990;28;20181;-71
2021/07/06 04:17:26;;;;;;;0.53;0.53;;;13.90;99.90;;;;;;2080171;28;20223;-71
2021/07/06 04:18:27;;;;;;;0.60;0.60;;;14.00;99.90;;;;;;2080343;28;20239;-71
2021/07/06 04:19:28;;;;;;;0.37;0.37;;;14.00;99.90;;;;;;2080165;28;20188;-71
2021/07/06 04:20:28;;;;;;;0.40;0.40;;;14.00;99.90;;;;;;2080697;28;20580;-71
2021/07/06 04:21:31;;;;;;;0.67;0.63;;;14.10;99.90;;;;;;2080810;28;20172;-71
2021/07/06 04:22:32;;;;;;;0.60;0.60;;;14.10;99.90;;;;;;2080339;28;20173;-72
2021/07/06 04:23:34;;;;;;;0.50;0.50;;;14.10;99.90;;;;;;2080165;28;20188;-71
2021/07/06 04:24:35;;;;;;;1.45;0.60;;;14.20;99.90;;;;;;2080134;28;20182;-71
2021/07/06 04:25:36;;;;;;;1.20;0.60;;;14.20;99.90;;;;;;2080206;28;20177;-71
2021/07/06 04:26:37;;;;;;;0.68;0.68;;;14.30;99.90;;;;;;2080967;28;20579;-70
2021/07/06 04:27:37;;;;;;;0.57;0.57;;;14.30;99.90;;;;;;2080789;28;20178;-71
2021/07/06 04:28:38;;;;;;;0.83;0.83;;;14.40;99.90;;;;;;2080312;28;20227;-70
2021/07/06 04:29:39;;;;;;;0.73;0.50;;;14.50;99.90;;;;;;2087129;28;20184;-71
2021/07/06 04:30:40;;;;;;;0.60;0.60;;;14.60;99.90;;;;;;2088895;28;20203;-71
2021/07/06 04:31:40;;;;;;;0.67;0.67;;;14.60;99.90;;;;;;2088493;28;20318;-71
2021/07/06 04:32:41;;;;;;;0.60;0.60;;;14.70;99.90;;;;;;2088442;28;20183;-71
2021/07/06 04:33:42;;;;;;;0.57;0.57;;;14.70;99.90;;;;;;2089124;28;20177;-71
2021/07/06 04:34:46;;;;;;;0.50;0.50;;;14.80;99.90;;;;;;2088276;28;20545;-70
2021/07/06 04:35:46;;;;;;;1.35;0.90;;;14.90;99.90;;;;;;2088488;28;20207;-70
2021/07/06 04:36:48;;;;;;;0.50;0.50;;;15.00;99.90;;;;;;2088283;28;20207;-71
2021/07/06 04:37:49;;;;;;;0.50;0.50;;;15.00;99.90;;;;;;2096858;28;20183;-71
2021/07/06 04:38:50;;;;;;;0.70;0.70;;;15.10;99.90;;;;;;2096524;28;20499;-71
2021/07/06 04:39:51;;;;;;;0.20;0.20;;;15.10;99.90;;;;;;2088538;28;20258;-71
2021/07/06 04:40:52;;;;;;;0.33;0.33;;;15.20;99.90;;;;;;2088648;28;20203;-71
2021/07/06 04:41:52;;;;;;;1.40;0.73;;;15.30;99.90;;;;;;2089125;28;20546;-71
2021/07/06 04:42:55;;;;;;;1.90;0.40;;;15.30;99.90;;;;;;2088345;28;20654;-71
2021/07/06 04:43:56;;;;;;;0.50;0.50;;;15.30;99.90;;;;;;2088449;28;20208;-71
2021/07/06 04:44:57;;;;;;;2.40;1.07;;;15.40;99.90;;;;;;2088944;28;20183;-70
2021/07/06 04:45:57;;;;;;;0.60;0.60;;;15.50;99.90;;;;;;2088304;28;20188;-71
2021/07/06 04:46:58;;;;;;;0.63;0.63;;;15.40;99.90;;;;;;2088378;28;20172;-71
2021/07/06 04:47:59;;;;;;;0.77;0.77;;;15.50;99.90;;;;;;2089053;28;20267;-71
2021/07/06 04:48:59;;;;;;;0.50;0.50;;;15.60;99.90;;;;;;2088945;28;20176;-71
2021/07/06 04:50:00;;;;;;;0.30;0.30;;;15.70;99.90;;;;;;2088981;28;20172;-71
2021/07/06 04:51:06;;;;;;;0.60;0.60;;;15.70;99.90;;;;;;2088598;28;20644;-70
2021/07/06 04:52:07;;;;;;;0.60;0.60;;;15.70;99.90;;;;;;2088486;28;20217;-71
2021/07/06 04:53:08;;;;;;;0.50;0.50;;;15.80;99.90;;;;;;2088386;28;20615;-71
2021/07/06 04:54:09;;;;;;;0.40;0.40;;;15.80;99.90;;;;;;2088439;28;20177;-71
2021/07/06 04:55:10;;;;;;;0.70;0.70;;;15.80;99.90;;;;;;2088343;28;20366;-71
2021/07/06 04:56:11;;;;;;;0.55;0.55;;;15.90;99.90;;;;;;2080116;28;20772;-71
2021/07/06 04:57:12;;;;;;;0.50;0.50;;;15.80;99.90;;;;;;2096652;28;20215;-71
2021/07/06 04:58:12;;;;;;;0.80;0.80;;;15.80;99.90;;;;;;2102387;28;20186;-71
2021/07/06 04:59:13;;;;;;;0.70;0.67;;;15.80;99.90;;;;;;2086529;28;20192;-71
2021/07/06 05:00:16;;;;;;;0.50;0.50;;;15.80;99.90;;;;;;2079596;28;20189;-71
2021/07/06 05:01:17;;;;;;;0.85;0.82;;;15.70;99.90;;;;;;2086278;28;20677;-70
2021/07/06 05:02:18;;;;;;;0.40;0.40;;;15.70;99.90;;;;;;2088366;28;20183;-71
2021/07/06 05:03:19;;;;;;;0.40;0.40;;;15.70;99.90;;;;;;2088479;28;20179;-71
2021/07/06 05:04:20;;;;;;;0.60;0.60;;;15.70;99.90;;;;;;2088553;28;20197;-71
2021/07/06 05:05:20;;;;;;;0.50;0.50;;;15.60;99.90;;;;;;2080784;28;20184;-71
2021/07/06 05:06:21;;;;;;;0.40;0.40;;;15.70;99.90;;;;;;2088395;28;20173;-70
2021/07/06 05:07:22;;;;;;;0.60;0.60;;;15.70;99.90;;;;;;2088259;28;20688;-71
2021/07/06 05:08:23;;;;;;;0.60;0.60;;;15.70;99.90;;;;;;2088395;28;20191;-71
2021/07/06 05:09:24;;;;;;;1.93;0.70;;;15.70;99.90;;;;;;2088314;28;20231;-71
2021/07/06 05:10:24;;;;;;;0.50;0.50;;;15.70;99.90;;;;;;2080517;28;20177;-71
2021/07/06 05:11:25;;;;;;;0.70;0.70;;;15.80;99.90;;;;;;2088245;28;20180;-70
2021/07/06 05:12:26;;;;;;;0.27;0.27;;;15.90;99.90;;;;;;2088298;28;20172;-71
2021/07/06 05:13:27;;;;;;;0.40;0.40;;;15.90;99.90;;;;;;2080578;28;20181;-71
2021/07/06 05:14:29;;;;;;;0.40;0.40;;;16.00;99.90;;;;;;2080747;28;20239;-71
2021/07/06 05:15:29;;;;;;;0.40;0.40;;;16.10;99.90;;;;;;2088281;28;20737;-70
2021/07/06 05:16:31;;;;;;;0.30;0.30;;;16.20;99.90;;;;;;2088365;28;20474;-71
2021/07/06 05:17:32;;;;;;;0.50;0.50;;;16.30;99.90;;;;;;2080628;28;20196;-71
2021/07/06 05:18:32;;;;;;;1.03;0.93;;;16.30;99.90;;;;;;2088271;28;20437;-71
2021/07/06 05:19:33;;;;;;;0.50;0.50;;;16.40;99.90;;;;;;2088334;28;20227;-71
2021/07/06 05:20:34;;;;;;;0.40;0.40;;;16.40;99.90;;;;;;2087963;28;20629;-70